EDDP

Leipzig/Halle Airport

Airport
ICAO code
EDDP
IATA Code
LEJ
Summary
ICAO Region
EUR
ICAO Territory
Location

Schkeuditz,

Serving
Leipzig
Elevation
470 ft
Coordinates
51° 25' 19" N , 12° 13' 13" E
Metar
Observation
EDDP 031620Z AUTO 30024G36KT 9999 SCT038 08/02 Q1016 NOSIG
Station
Leipzig-Schkeuditz
Date/Time
2023-02-03 16:20:00
Wind direction
300°
Wind speed
24 kts
Lowest cloud amount
scattered clouds
Temperature
8°C
Dew point
2°C
Humidity
65%
QNH
1016 hPa
Weather condition
n/a

Runways

Designator Length Width Surface Rops
08L/26R 3600 45 CON Yes/Yes
08R/26L 3600 60 CON Yes/Yes

Airport map

Aerial View

SKYbrary Partners:

Safety knowledge contributed by: